createdAt,value
2018-07-25T00:00:13.589Z,14.27
2018-07-25T00:02:40.912Z,12.43
2018-07-25T00:05:08.287Z,12.40
2018-07-25T00:07:35.649Z,13.13
2018-07-25T00:10:03.059Z,12.30
2018-07-25T00:12:30.381Z,12.93
2018-07-25T00:14:58.022Z,13.33
2018-07-25T00:17:25.740Z,12.70
2018-07-25T00:19:53.270Z,11.90
2018-07-25T00:22:20.759Z,12.70
2018-07-25T00:24:48.109Z,12.10
2018-07-25T00:27:15.475Z,11.60
2018-07-25T00:29:43.000Z,11.50
2018-07-25T00:32:10.720Z,11.30
2018-07-25T00:34:38.056Z,11.87
2018-07-25T00:37:05.402Z,11.97
2018-07-25T00:39:33.100Z,11.30
2018-07-25T00:42:00.409Z,12.40
2018-07-25T00:44:27.762Z,11.83
2018-07-25T00:46:55.098Z,12.80
2018-07-25T00:49:22.425Z,12.97
2018-07-25T00:51:49.762Z,11.43
2018-07-25T00:54:17.116Z,11.40
2018-07-25T00:56:44.509Z,11.90
2018-07-25T00:59:11.877Z,12.80
2018-07-25T01:01:39.182Z,12.93
2018-07-25T01:04:06.515Z,14.03
2018-07-25T01:06:33.885Z,13.03
2018-07-25T01:09:01.253Z,14.80
2018-07-25T01:11:28.572Z,13.87
2018-07-25T01:13:55.884Z,13.87
2018-07-25T01:16:23.273Z,16.20
2018-07-25T01:18:50.669Z,13.83
2018-07-25T01:21:18.063Z,15.20
2018-07-25T01:23:45.407Z,14.30
2018-07-25T01:26:12.885Z,13.27
2018-07-25T01:28:40.185Z,14.47
2018-07-25T01:31:07.678Z,15.30
2018-07-25T01:33:35.026Z,14.00
2018-07-25T01:36:02.403Z,13.33
2018-07-25T01:38:29.712Z,14.67
2018-07-25T01:40:57.059Z,14.70
2018-07-25T01:43:24.431Z,14.20
2018-07-25T01:45:51.759Z,15.63
2018-07-25T01:48:19.135Z,14.63
2018-07-25T01:50:46.508Z,15.53
2018-07-25T01:53:13.830Z,15.00
2018-07-25T01:55:41.133Z,14.77
2018-07-25T01:58:08.453Z,15.87
2018-07-25T02:00:35.771Z,14.93
2018-07-25T02:03:03.068Z,15.53
2018-07-25T02:05:30.806Z,13.90
2018-07-25T02:07:58.164Z,14.70
2018-07-25T02:10:25.518Z,15.47
2018-07-25T02:12:52.884Z,14.93
2018-07-25T02:15:20.248Z,13.73
2018-07-25T02:17:47.596Z,15.03
2018-07-25T02:20:14.987Z,14.23
2018-07-25T02:22:42.287Z,14.80
2018-07-25T02:25:09.646Z,14.50
2018-07-25T02:27:37.385Z,14.40
2018-07-25T02:30:04.987Z,14.83
2018-07-25T02:32:32.341Z,14.23
2018-07-25T02:34:59.703Z,14.27
2018-07-25T02:37:27.027Z,13.80
2018-07-25T02:39:54.354Z,15.03
2018-07-25T02:42:21.708Z,15.07
2018-07-25T02:44:48.992Z,14.07
2018-07-25T02:47:16.305Z,14.40
2018-07-25T02:49:43.624Z,14.47
2018-07-25T02:52:11.018Z,13.73
2018-07-25T02:54:38.357Z,13.27
2018-07-25T02:57:05.714Z,14.63
2018-07-25T02:59:33.041Z,13.63
2018-07-25T03:02:00.468Z,14.07
2018-07-25T03:04:27.778Z,14.17
2018-07-25T03:06:55.122Z,15.13
2018-07-25T03:09:22.553Z,14.77
2018-07-25T03:11:49.824Z,14.00
2018-07-25T03:14:17.107Z,15.40
2018-07-25T03:16:44.535Z,14.63
2018-07-25T03:19:11.796Z,14.17
2018-07-25T03:21:39.214Z,14.30
2018-07-25T03:24:06.505Z,14.60
2018-07-25T03:26:33.896Z,15.03
2018-07-25T03:29:01.251Z,15.17
2018-07-25T03:31:28.628Z,15.53
2018-07-25T03:33:56.699Z,14.77
2018-07-25T03:36:24.086Z,14.23
2018-07-25T03:38:51.620Z,16.17
2018-07-25T03:41:19.000Z,16.37
2018-07-25T03:43:46.305Z,16.60
2018-07-25T03:46:13.624Z,16.00
2018-07-25T03:48:40.993Z,16.50
2018-07-25T03:51:08.362Z,16.07
2018-07-25T03:53:35.678Z,15.30
2018-07-25T03:56:03.060Z,16.00
2018-07-25T03:58:30.375Z,15.00
2018-07-25T04:00:57.759Z,16.00
2018-07-25T04:03:25.072Z,15.23
2018-07-25T04:05:52.492Z,15.10
2018-07-25T04:08:19.795Z,16.20
2018-07-25T04:10:49.155Z,15.63
2018-07-25T04:13:17.755Z,15.20
2018-07-25T04:15:45.107Z,15.80
2018-07-25T04:18:12.966Z,16.20
2018-07-25T04:20:40.320Z,15.80
2018-07-25T04:23:07.758Z,15.53
2018-07-25T04:25:35.106Z,14.97
2018-07-25T04:28:02.434Z,15.80
2018-07-25T04:30:29.885Z,15.43
2018-07-25T04:32:57.570Z,15.70
2018-07-25T04:35:24.889Z,15.43
2018-07-25T04:37:52.220Z,16.57
2018-07-25T04:40:19.582Z,15.33
2018-07-25T04:42:46.963Z,14.77
2018-07-25T04:45:14.234Z,15.43
2018-07-25T04:47:41.618Z,13.57
2018-07-25T04:50:09.012Z,13.97
2018-07-25T04:52:37.458Z,14.43
2018-07-25T04:55:04.967Z,13.97
2018-07-25T04:57:33.726Z,14.33
2018-07-25T05:00:01.097Z,16.60
2018-07-25T05:02:28.450Z,14.97
2018-07-25T05:04:55.900Z,14.47
2018-07-25T05:07:23.272Z,15.07
2018-07-25T05:09:50.612Z,15.20
2018-07-25T05:12:18.164Z,14.40
2018-07-25T05:14:46.628Z,13.97
2018-07-25T05:17:14.080Z,14.37
2018-07-25T05:19:41.406Z,15.57
2018-07-25T05:22:09.671Z,14.00
2018-07-25T05:24:37.150Z,13.50
2018-07-25T05:27:04.968Z,13.33
2018-07-25T05:29:32.367Z,13.87
2018-07-25T05:31:59.650Z,12.23
2018-07-25T05:34:27.397Z,12.97
2018-07-25T05:36:54.747Z,13.63
2018-07-25T05:39:22.118Z,13.23
2018-07-25T05:41:49.465Z,13.37
2018-07-25T05:44:17.885Z,11.83
2018-07-25T05:46:45.297Z,12.83
2018-07-25T05:49:12.569Z,12.80
2018-07-25T05:51:39.920Z,12.00
2018-07-25T05:54:07.247Z,12.97
2018-07-25T05:56:34.548Z,13.43
2018-07-25T05:59:01.910Z,13.03
2018-07-25T06:01:29.257Z,13.17
2018-07-25T06:03:56.762Z,13.47
2018-07-25T06:06:24.076Z,14.13
2018-07-25T06:08:51.872Z,14.03
2018-07-25T06:11:19.263Z,12.00
2018-07-25T06:13:47.359Z,14.17
2018-07-25T06:16:14.739Z,13.00
2018-07-25T06:18:42.149Z,13.60
2018-07-25T06:21:09.692Z,12.77
2018-07-25T06:23:37.114Z,12.80
2018-07-25T06:26:04.551Z,11.60
2018-07-25T06:28:31.818Z,13.07
2018-07-25T06:30:59.250Z,14.20
2018-07-25T06:33:26.736Z,12.17
2018-07-25T06:35:54.202Z,13.50
2018-07-25T06:38:21.715Z,13.00
2018-07-25T06:40:49.079Z,11.77
2018-07-25T06:43:16.390Z,11.80
2018-07-25T06:45:43.766Z,13.07
2018-07-25T06:48:11.245Z,12.10
2018-07-25T06:50:38.597Z,12.73
2018-07-25T06:53:06.046Z,12.40
2018-07-25T06:55:33.456Z,12.90
2018-07-25T06:58:00.885Z,12.40
2018-07-25T07:00:28.524Z,12.07
2018-07-25T07:02:55.934Z,11.47
2018-07-25T07:05:23.339Z,12.03
2018-07-25T07:07:50.721Z,12.83
2018-07-25T07:10:18.107Z,12.97
2018-07-25T07:12:45.518Z,12.50
2018-07-25T07:15:12.905Z,12.73
2018-07-25T07:17:40.697Z,12.07
2018-07-25T07:20:08.062Z,13.43
2018-07-25T07:22:35.644Z,12.67
2018-07-25T07:25:02.965Z,13.10
2018-07-25T07:27:30.314Z,11.87
2018-07-25T07:29:57.962Z,12.37
2018-07-25T07:32:25.349Z,10.87
2018-07-25T07:34:52.702Z,11.07
2018-07-25T07:37:20.119Z,11.37
2018-07-25T07:39:47.522Z,10.93
2018-07-25T07:42:15.028Z,12.37
2018-07-25T07:44:42.369Z,13.10
2018-07-25T07:47:09.785Z,11.00
2018-07-25T07:49:37.133Z,10.77
2018-07-25T07:52:04.556Z,12.17
2018-07-25T07:54:31.895Z,11.53
2018-07-25T07:56:59.382Z,12.87
2018-07-25T07:59:26.798Z,12.07
2018-07-25T08:01:54.130Z,13.47
2018-07-25T08:04:21.511Z,12.03
2018-07-25T08:06:48.866Z,11.63
2018-07-25T08:09:16.195Z,11.37
2018-07-25T08:11:44.267Z,10.87
2018-07-25T08:14:11.631Z,11.37
2018-07-25T08:16:38.957Z,10.70
2018-07-25T08:19:06.478Z,9.67
2018-07-25T08:21:33.872Z,10.90
2018-07-25T08:24:01.192Z,10.73
2018-07-25T08:26:28.731Z,11.00
2018-07-25T08:28:56.037Z,13.00
2018-07-25T08:31:23.408Z,12.17
2018-07-25T08:33:50.772Z,11.10
2018-07-25T08:36:18.293Z,12.53
2018-07-25T08:38:45.624Z,10.93
2018-07-25T08:41:13.033Z,10.47
2018-07-25T08:43:41.772Z,12.30
2018-07-25T08:46:10.328Z,11.43
2018-07-25T08:48:38.121Z,10.73
2018-07-25T08:51:05.516Z,11.00
2018-07-25T08:53:37.157Z,11.17
2018-07-25T08:56:04.684Z,10.53
2018-07-25T08:58:31.986Z,10.80
2018-07-25T09:00:59.861Z,11.10
2018-07-25T09:03:27.221Z,10.40
2018-07-25T09:05:54.640Z,9.60
2018-07-25T09:08:22.097Z,11.40
2018-07-25T09:10:49.483Z,9.90
2018-07-25T09:13:16.906Z,8.87
2018-07-25T09:15:44.299Z,9.03
2018-07-25T09:18:11.646Z,7.90
2018-07-25T09:20:39.025Z,8.57
2018-07-25T09:23:06.451Z,7.47
2018-07-25T09:25:34.460Z,8.40
2018-07-25T09:28:01.734Z,6.83
2018-07-25T09:30:29.304Z,7.63
2018-07-25T09:32:56.775Z,7.27
2018-07-25T09:35:24.295Z,8.23
2018-07-25T09:37:51.701Z,8.00
2018-07-25T09:40:19.099Z,8.57
2018-07-25T09:42:46.604Z,8.07
2018-07-25T09:45:14.009Z,19.77
2018-07-25T09:47:41.348Z,11.13
2018-07-25T09:50:09.391Z,6.90
2018-07-25T09:52:37.753Z,9.33
2018-07-25T09:55:05.382Z,9.03
2018-07-25T09:57:32.712Z,7.13
2018-07-25T10:00:00.649Z,5.90
2018-07-25T10:02:28.034Z,6.77
2018-07-25T10:04:55.342Z,6.63
2018-07-25T10:07:22.853Z,7.03
2018-07-25T10:09:50.004Z,6.20
2018-07-25T10:12:17.426Z,5.20
2018-07-25T10:14:44.800Z,6.43
2018-07-25T10:17:12.334Z,6.90
2018-07-25T10:19:39.682Z,6.20
2018-07-25T10:22:07.091Z,6.20
2018-07-25T10:24:34.503Z,6.30
2018-07-25T10:27:01.842Z,6.60
2018-07-25T10:29:29.138Z,6.90
2018-07-25T10:31:56.447Z,6.20
2018-07-25T10:34:23.802Z,6.20
2018-07-25T10:36:51.175Z,6.50
2018-07-25T10:39:18.498Z,6.23
2018-07-25T10:41:45.826Z,6.50
2018-07-25T10:44:13.164Z,6.30
2018-07-25T10:46:40.635Z,6.40
2018-07-25T10:49:08.156Z,7.20
2018-07-25T10:51:35.453Z,6.70
2018-07-25T10:54:02.773Z,6.00
2018-07-25T10:56:30.096Z,6.27
2018-07-25T10:58:57.433Z,5.37
2018-07-25T11:01:24.797Z,6.03
2018-07-25T11:03:52.155Z,5.55
2018-07-25T11:06:19.608Z,6.08
2018-07-25T11:08:46.904Z,6.40
2018-07-25T11:11:14.571Z,6.00
2018-07-25T11:13:41.901Z,5.92
2018-07-25T11:16:09.264Z,6.10
2018-07-25T11:18:36.979Z,4.92
2018-07-25T11:21:04.354Z,5.92
2018-07-25T11:23:31.705Z,5.87
2018-07-25T11:25:59.021Z,5.37
2018-07-25T11:28:26.341Z,5.50
2018-07-25T11:30:53.704Z,5.15
2018-07-25T11:33:21.604Z,6.17
2018-07-25T11:35:48.935Z,6.50
2018-07-25T11:38:16.282Z,5.30
2018-07-25T11:40:43.718Z,7.17
2018-07-25T11:43:11.048Z,7.90
2018-07-25T11:45:38.762Z,8.27
2018-07-25T11:48:06.143Z,7.80
2018-07-25T11:50:34.453Z,8.30
2018-07-25T11:53:01.793Z,9.00
2018-07-25T11:55:29.321Z,8.10
2018-07-25T11:57:56.661Z,8.63
2018-07-25T12:00:24.046Z,8.40
2018-07-25T12:02:51.503Z,8.90
2018-07-25T12:05:18.841Z,7.03
2018-07-25T12:07:46.381Z,6.17
2018-07-25T12:10:13.735Z,6.30
2018-07-25T12:12:41.091Z,6.23
2018-07-25T12:15:09.479Z,5.97
2018-07-25T12:17:37.110Z,6.37
2018-07-25T12:20:04.881Z,6.77
2018-07-25T12:22:32.284Z,6.70
2018-07-25T12:24:59.693Z,6.47
2018-07-25T12:27:27.050Z,6.57
2018-07-25T12:29:54.416Z,5.73
2018-07-25T12:32:21.826Z,6.20
2018-07-25T12:34:49.242Z,5.27
2018-07-25T12:37:16.622Z,6.27
2018-07-25T12:39:44.087Z,6.80
2018-07-25T12:42:11.512Z,6.00
2018-07-25T12:44:39.083Z,6.60
2018-07-25T12:47:06.907Z,7.00
2018-07-25T12:49:34.410Z,6.50
2018-07-25T12:52:02.145Z,6.80
2018-07-25T12:54:29.878Z,6.43
2018-07-25T12:56:57.325Z,6.97
2018-07-25T12:59:25.244Z,6.80
2018-07-25T13:01:52.661Z,6.57
2018-07-25T13:09:48.438Z,6.00
2018-07-25T13:12:15.809Z,6.00
2018-07-25T13:17:39.007Z,6.87
2018-07-25T13:25:33.859Z,7.20
2018-07-25T13:28:01.200Z,6.80
2018-07-25T13:30:28.557Z,7.40
2018-07-25T13:32:55.946Z,7.00
2018-07-25T13:35:23.595Z,7.10
2018-07-25T13:37:50.954Z,7.00
2018-07-25T13:40:18.308Z,7.00
2018-07-25T13:42:45.739Z,6.50
2018-07-25T13:45:13.016Z,5.93
2018-07-25T13:47:40.399Z,6.47
2018-07-25T13:50:08.921Z,7.20
2018-07-25T13:52:36.300Z,6.97
2018-07-25T13:55:03.749Z,7.07
2018-07-25T13:57:31.130Z,7.10
2018-07-25T13:59:58.507Z,7.30
2018-07-25T14:02:25.896Z,8.97
2018-07-25T14:04:53.340Z,7.87
2018-07-25T14:07:20.749Z,7.40
2018-07-25T14:09:48.524Z,7.33
2018-07-25T14:12:16.248Z,7.47
2018-07-25T14:14:43.908Z,7.17
2018-07-25T14:17:11.320Z,7.50
2018-07-25T14:19:38.749Z,8.07
2018-07-25T14:22:06.145Z,8.30
2018-07-25T14:24:33.620Z,8.23
2018-07-25T14:27:01.010Z,7.97
2018-07-25T14:29:28.518Z,7.97
2018-07-25T14:31:56.376Z,7.33
2018-07-25T14:34:23.686Z,6.97
2018-07-25T14:36:51.015Z,7.00
2018-07-25T14:39:18.327Z,7.30
2018-07-25T14:41:45.636Z,6.77
2018-07-25T14:44:13.061Z,7.03
2018-07-25T14:46:40.560Z,7.10
2018-07-25T14:49:07.985Z,7.10
2018-07-25T14:51:35.508Z,6.87
2018-07-25T14:54:02.797Z,6.83
2018-07-25T14:56:31.533Z,8.03
2018-07-25T14:58:59.054Z,12.20
2018-07-25T15:01:27.221Z,6.83
2018-07-25T15:03:54.579Z,7.10
2018-07-25T15:06:21.997Z,7.83
2018-07-25T15:08:49.387Z,7.17
2018-07-25T15:11:16.741Z,7.60
2018-07-25T15:13:44.156Z,6.57
2018-07-25T15:16:11.600Z,6.30
2018-07-25T15:18:39.083Z,7.37
2018-07-25T15:21:06.650Z,6.77
2018-07-25T15:23:39.898Z,6.80
2018-07-25T15:26:07.237Z,7.30
2018-07-25T15:28:34.676Z,7.07
2018-07-25T15:31:02.032Z,6.07
2018-07-25T15:33:29.406Z,6.57
2018-07-25T15:35:56.806Z,5.47
2018-07-25T15:38:24.250Z,5.97
2018-07-25T15:40:51.640Z,6.30
2018-07-25T15:43:18.985Z,6.40
2018-07-25T15:45:47.455Z,6.07
2018-07-25T15:48:14.964Z,6.30
2018-07-25T15:50:42.344Z,6.20
2018-07-25T15:53:09.823Z,7.33
2018-07-25T15:55:37.194Z,6.80
2018-07-25T15:58:04.627Z,6.37
2018-07-25T16:00:32.395Z,6.70
2018-07-25T16:03:00.116Z,6.33
2018-07-25T16:05:28.521Z,7.50
2018-07-25T16:07:56.710Z,6.70
2018-07-25T16:10:24.299Z,5.50
2018-07-25T16:12:52.686Z,6.07
2018-07-25T16:15:20.190Z,6.20
2018-07-25T16:17:48.814Z,5.87
2018-07-25T16:20:16.721Z,6.37
2018-07-25T16:22:44.850Z,5.30
2018-07-25T16:25:12.648Z,5.90
2018-07-25T16:27:40.148Z,5.27
2018-07-25T16:30:08.185Z,5.33
2018-07-25T16:32:42.213Z,5.97
2018-07-25T16:35:09.882Z,5.87
2018-07-25T16:37:37.223Z,6.17
2018-07-25T16:40:04.861Z,5.93
2018-07-25T16:42:32.147Z,6.00
2018-07-25T16:44:59.491Z,5.50
2018-07-25T16:47:26.859Z,5.43
2018-07-25T16:49:54.274Z,5.40
2018-07-25T16:52:21.658Z,5.10
2018-07-25T16:54:48.982Z,4.90
2018-07-25T16:57:16.345Z,5.10
2018-07-25T16:59:44.082Z,5.03
2018-07-25T17:02:12.138Z,5.30
2018-07-25T17:04:39.711Z,5.00
2018-07-25T17:07:07.410Z,5.00
2018-07-25T17:09:34.786Z,5.10
2018-07-25T17:12:02.157Z,3.93
2018-07-25T17:14:29.572Z,4.40
2018-07-25T17:16:56.868Z,4.70
2018-07-25T17:19:24.221Z,4.10
2018-07-25T17:21:51.569Z,4.13
2018-07-25T17:24:18.928Z,3.70
2018-07-25T17:26:46.235Z,4.50
2018-07-25T17:29:13.618Z,3.93
2018-07-25T17:31:41.009Z,4.00
2018-07-25T17:34:08.339Z,4.03
2018-07-25T17:36:35.699Z,5.27
2018-07-25T17:39:03.152Z,4.70
2018-07-25T17:41:30.565Z,5.00
2018-07-25T17:43:57.882Z,4.83
2018-07-25T17:46:25.286Z,5.10
2018-07-25T17:48:52.589Z,5.30
2018-07-25T17:51:20.009Z,5.20
2018-07-25T17:53:47.422Z,5.27
2018-07-25T17:56:14.759Z,5.70
2018-07-25T17:58:42.156Z,5.23
2018-07-25T18:01:09.574Z,5.47
2018-07-25T18:03:37.062Z,5.53
2018-07-25T18:06:04.903Z,5.80
2018-07-25T18:08:32.272Z,5.87
2018-07-25T18:10:59.649Z,6.13
2018-07-25T18:13:32.512Z,6.23
2018-07-25T18:15:59.850Z,6.73
2018-07-25T18:18:27.263Z,6.60
2018-07-25T18:20:54.899Z,6.00
2018-07-25T18:23:22.177Z,7.37
2018-07-25T18:25:49.545Z,5.77
2018-07-25T18:28:17.624Z,6.60
2018-07-25T18:30:45.051Z,7.87
2018-07-25T18:33:12.708Z,5.83
2018-07-25T18:35:40.388Z,6.90
2018-07-25T18:38:07.948Z,6.97
2018-07-25T18:40:35.450Z,6.60
2018-07-25T18:43:03.560Z,6.83
2018-07-25T18:45:30.973Z,6.90
2018-07-25T18:47:58.488Z,6.27
2018-07-25T18:50:26.102Z,7.00
2018-07-25T18:52:53.583Z,6.63
2018-07-25T18:55:21.217Z,6.73
2018-07-25T18:57:48.565Z,7.17
2018-07-25T19:00:16.266Z,6.43
2018-07-25T19:02:43.684Z,6.90
2018-07-25T19:05:11.466Z,6.37
2018-07-25T19:07:39.100Z,6.83
2018-07-25T19:10:06.791Z,6.87
2018-07-25T19:12:34.637Z,6.83
2018-07-25T19:15:07.291Z,8.27
2018-07-25T19:17:34.961Z,7.73
2018-07-25T19:20:02.431Z,8.10
2018-07-25T19:22:29.804Z,8.47
2018-07-25T19:24:57.195Z,8.43
2018-07-25T19:27:24.707Z,8.00
2018-07-25T19:29:52.106Z,7.47
2018-07-25T19:32:19.461Z,7.53
2018-07-25T19:34:46.963Z,6.53
2018-07-25T19:37:14.374Z,6.47
2018-07-25T19:39:41.735Z,6.70
2018-07-25T19:42:10.165Z,6.93
2018-07-25T19:44:37.835Z,6.23
2018-07-25T19:47:06.058Z,6.33
2018-07-25T19:49:33.885Z,6.30
2018-07-25T19:52:01.591Z,6.20
2018-07-25T19:54:28.958Z,6.67
2018-07-25T19:56:56.590Z,7.00
2018-07-25T19:59:24.358Z,6.87
2018-07-25T20:01:53.045Z,8.77
2018-07-25T20:04:21.122Z,7.03
2018-07-25T20:06:48.856Z,7.20
2018-07-25T20:09:16.418Z,7.77
2018-07-25T20:11:44.129Z,6.77
2018-07-25T20:14:17.001Z,7.43
2018-07-25T20:16:44.395Z,7.93
2018-07-25T20:19:11.653Z,7.77
2018-07-25T20:21:39.210Z,7.73
2018-07-25T20:24:07.190Z,7.17
2018-07-25T20:26:34.785Z,6.97
2018-07-25T20:29:02.207Z,7.23
2018-07-25T20:31:29.625Z,7.13
2018-07-25T20:33:57.163Z,7.33
2018-07-25T20:36:24.569Z,9.07
2018-07-25T20:38:52.114Z,9.70
2018-07-25T20:41:19.567Z,8.97
2018-07-25T20:43:47.101Z,9.03
2018-07-25T20:46:14.402Z,9.37
2018-07-25T20:48:41.845Z,8.80
2018-07-25T20:51:09.365Z,8.97
2018-07-25T20:53:38.078Z,8.23
2018-07-25T20:56:05.447Z,10.30
2018-07-25T20:58:32.819Z,9.50
2018-07-25T21:01:00.586Z,9.20
2018-07-25T21:03:28.063Z,10.00
2018-07-25T21:05:55.740Z,9.10
2018-07-25T21:08:23.550Z,8.67
2018-07-25T21:10:50.940Z,9.00
2018-07-25T21:13:18.961Z,9.73
2018-07-25T21:15:46.320Z,11.80
2018-07-25T21:18:13.714Z,10.40
2018-07-25T21:20:41.142Z,9.10
2018-07-25T21:23:08.800Z,8.13
2018-07-25T21:25:36.284Z,8.30
2018-07-25T21:28:04.727Z,8.77
2018-07-25T21:30:34.636Z,7.57
2018-07-25T21:33:02.390Z,8.80
2018-07-25T21:35:29.934Z,7.60
2018-07-25T21:37:57.374Z,8.67
2018-07-25T21:40:26.346Z,7.70
2018-07-25T21:42:54.342Z,8.47
2018-07-25T21:45:21.672Z,8.33
2018-07-25T21:47:49.721Z,8.20
2018-07-25T21:50:17.745Z,7.70
2018-07-25T21:52:45.163Z,8.47
2018-07-25T21:55:12.518Z,8.20
2018-07-25T21:57:39.869Z,8.73
2018-07-25T22:00:12.317Z,8.47
2018-07-25T22:02:39.762Z,7.60
2018-07-25T22:05:07.118Z,8.53
2018-07-25T22:07:36.024Z,7.93
2018-07-25T22:10:03.749Z,7.80
2018-07-25T22:12:31.131Z,8.10
2018-07-25T22:14:59.424Z,8.27
2018-07-25T22:17:27.281Z,7.70
2018-07-25T22:19:55.318Z,9.67
2018-07-25T22:22:22.885Z,8.60
2018-07-25T22:24:50.236Z,8.03
2018-07-25T22:27:17.585Z,9.30
2018-07-25T22:29:45.100Z,8.27
2018-07-25T22:32:12.532Z,8.77
2018-07-25T22:34:39.841Z,8.10
2018-07-25T22:37:07.623Z,8.00
2018-07-25T22:39:34.984Z,8.80
2018-07-25T22:42:02.322Z,8.00
2018-07-25T22:44:29.669Z,9.03
2018-07-25T22:46:57.018Z,9.50
2018-07-25T22:49:24.378Z,8.40
2018-07-25T22:51:51.747Z,9.33
2018-07-25T22:54:19.212Z,9.03
2018-07-25T22:56:46.588Z,8.40
2018-07-25T22:59:14.102Z,8.93
2018-07-25T23:01:41.595Z,10.07
2018-07-25T23:04:10.161Z,8.53
2018-07-25T23:06:37.521Z,9.10
2018-07-25T23:09:07.816Z,8.40
2018-07-25T23:11:36.092Z,8.43
2018-07-25T23:14:03.512Z,8.67
2018-07-25T23:16:31.469Z,7.83
2018-07-25T23:18:59.267Z,8.27
2018-07-25T23:21:26.720Z,8.77
2018-07-25T23:23:54.114Z,9.20
2018-07-25T23:26:21.706Z,7.77
2018-07-25T23:28:49.423Z,7.83
2018-07-25T23:31:16.773Z,8.13
2018-07-25T23:33:44.452Z,7.47
2018-07-25T23:36:12.009Z,8.13
2018-07-25T23:38:39.704Z,8.67
2018-07-25T23:41:07.332Z,8.40
2018-07-25T23:43:34.675Z,8.40
2018-07-25T23:46:02.726Z,12.83
2018-07-25T23:48:30.498Z,7.87
2018-07-25T23:50:58.797Z,7.90
2018-07-25T23:53:26.201Z,8.10
2018-07-25T23:55:53.768Z,8.33
2018-07-25T23:58:21.624Z,8.53
